Flight Track Log - Related Links

Times and Time Zones

All times are in EDT time to prevent confusion due to time zone crossing. See the FIV606 flight status page for this flight to view local times or setup timezone preferences in your user account.

Time Position Orientation Groundspeed Altitude Reporting Facility
EDT Latitude Longitude Course Direction KTS MPH feet Rate Location/Type
Sun 11:45:26 AM 39.1500 -78.1833 214° Southwest 195 224 3,500  Level Potomac TRACON
Sun 11:45:52 AM 39.1247 -78.2056 214° Southwest 223 257 3,900 1,517 Climbing Washington Center
Sun 11:46:53 AM 39.0672 -78.1608 149° Southeast 227 261 5,700 2,557 Climbing Washington Center
Sun 11:47:54 AM 39.0019 -78.1958 203° Southwest 233 268 9,100 2,132 Climbing Washington Center
Sun 11:48:54 AM 38.9628 -78.2719 237° Southwest 228 262 10,000 1,311 Climbing Washington Center
Sun 11:49:53 AM 38.9664 -78.3817 272° West 257 296 11,700 3,025 Climbing Washington Center
Sun 11:50:53 AM 38.9700 -78.4992 272° West 291 335 16,000 4,279 Climbing Washington Center
Sun 11:51:55 AM 38.9736 -78.6089 272° West 311 358 20,400 4,185 Climbing Washington Center
Sun 11:52:52 AM 38.9769 -78.7211 272° West 317 365 24,300 3,385 Climbing Washington Center
Sun 11:53:52 AM 38.9783 -78.8306 271° West 311 358 27,000 2,550 Climbing Washington Center
Sun 11:54:52 AM 38.9836 -78.9431 273° West 311 358 29,400 1,488 Climbing Washington Center
Sun 11:55:53 AM 38.9864 -79.0608 272° West 317 365 30,000 787 Climbing Washington Center
Sun 11:56:54 AM 38.9889 -79.1864 272° West 335 386 31,000 1,041 Climbing Washington Center
Sun 11:57:54 AM 38.9914 -79.3147 271° West 354 407 32,100 1,119 Climbing Washington Center
Sun 11:58:52 AM 38.9936 -79.4378 271° West 354 407 33,200 1,128 Climbing Washington Center
Sun 11:59:51 AM 38.9978 -79.5661 272° West 359 413 34,300 1,050 Climbing Washington Center
Sun 12:00:52 PM 39.0000 -79.6864 271° West 376 433 35,300 1,033 Climbing Washington Center
Sun 12:01:53 PM 39.0039 -79.8203 272° West 376 433 36,400 843 Climbing Washington Center
Sun 12:02:53 PM 39.0053 -79.9539 271° West 376 433 37,000 744 Climbing Washington Center
Sun 12:03:54 PM 39.0061 -80.1008 270° West 371 427 37,900 913 Climbing Washington Center
Sun 12:04:25 PM 39.0058 -80.1550 270° West 373 429 38,400 913 Climbing Indianapolis Center
Sun 12:05:26 PM 39.0083 -80.2844 271° West 365 420 39,300 780 Climbing Indianapolis Center
Sun 12:06:28 PM 39.0131 -80.4147 273° West 365 420 40,000 341 Climbing Indianapolis Center
Sun 12:07:29 PM 39.0675 -80.5378 300° West 396 456 40,000  Level Indianapolis Center
Sun 12:08:31 PM 39.1228 -80.6647 299° West 405 466 40,000  Level Indianapolis Center
Sun 12:09:32 PM 39.1897 -80.8136 300° West 402 463 40,000  Level Indianapolis Center
Sun 12:10:33 PM 39.2433 -80.9381 299° West 399 459 40,000  Level Indianapolis Center
Sun 12:11:35 PM 39.2986 -81.0633 300° West 401 461 40,000  Level Indianapolis Center
Sun 12:12:36 PM 39.3528 -81.1886 299° West 402 463 40,000  Level Indianapolis Center
Sun 12:13:38 PM 39.4069 -81.3136 299° West 400 460 40,000  Level Indianapolis Center
Sun 12:14:39 PM 39.4617 -81.4392 299° West 401 461 40,000  Level Indianapolis Center
Sun 12:15:41 PM 39.5156 -81.5644 299° West 401 461 40,000  Level Indianapolis Center
Sun 12:16:42 PM 39.5794 -81.7164 299° West 402 463 40,000  Level Indianapolis Center
Sun 12:17:43 PM 39.6342 -81.8422 299° West 401 461 40,000  Level Indianapolis Center
Sun 12:18:45 PM 39.6872 -81.9694 298° West 402 463 40,000  Level Indianapolis Center
Sun 12:19:46 PM 39.7369 -82.0881 299° West 400 460 40,000  Level Indianapolis Center
Sun 12:20:48 PM 39.7917 -82.2164 299° West 403 464 40,000  Level Indianapolis Center
Sun 12:21:49 PM 39.8453 -82.3444 299° West 401 461 40,000  Level Indianapolis Center
Sun 12:22:50 PM 39.8989 -82.4733 298° West 402 463 40,000  Level Indianapolis Center
Sun 12:23:52 PM 39.9617 -82.6239 299° West 402 463 40,000  Level Indianapolis Center
Sun 12:24:53 PM 40.0133 -82.7511 298° West 397 457 40,000  Level Indianapolis Center
Sun 12:25:54 PM 40.0669 -82.8794 299° West 399 459 40,000  Level Indianapolis Center
Sun 12:26:56 PM 40.1194 -83.0061 298° West 397 457 40,000  Level Indianapolis Center
Sun 12:27:57 PM 40.1714 -83.1358 298° West 401 461 40,000  Level Indianapolis Center
Sun 12:28:59 PM 40.2239 -83.2656 298° West 402 463 40,000  Level Indianapolis Center
Sun 12:30:00 PM 40.2767 -83.3961 298° West 404 465 40,000 -293 Level Indianapolis Center
Sun 12:31:02 PM 40.3297 -83.5272 298° West 405 466 39,400 -878 Descending Indianapolis Center
Sun 12:32:03 PM 40.3908 -83.6786 298° West 402 463 38,200 -1,073 Descending Indianapolis Center
Sun 12:33:05 PM 40.4419 -83.8069 298° West 397 457 37,200 -976 Descending Indianapolis Center
Sun 12:34:06 PM 40.4936 -83.9353 298° West 396 456 36,200 -976 Descending Indianapolis Center
Sun 12:35:08 PM 40.5439 -84.0608 298° West 387 445 35,200 -1,306 Descending Indianapolis Center
Sun 12:36:10 PM 40.5925 -84.1850 297° West 380 437 33,500 -1,512 Descending Indianapolis Center
Sun 12:37:11 PM 40.6392 -84.3044 297° West 367 422 32,100 -1,376 Descending Indianapolis Center
Sun 12:37:59 PM 40.6786 -84.4061 297° West 367 422 31,000 -1,145 Descending Chicago Center
Sun 12:39:01 PM 40.7261 -84.5264 298° West 368 423 30,000 -484 Descending Chicago Center
Sun 12:40:03 PM 40.7750 -84.6500 298° West 373 429 30,000  Level Chicago Center
Sun 12:41:04 PM 40.8383 -84.7661 306° West 385 443 30,000  Level Chicago Center
Sun 12:42:06 PM 40.9206 -84.8689 317° Northwest 403 464 30,000 -387 Level Chicago Center
Sun 12:43:08 PM 41.0017 -84.9681 317° Northwest 401 461 29,200 -1,355 Descending Chicago Center
Sun 12:44:10 PM 41.0917 -85.0806 317° Northwest 378 435 27,200 -1,951 Descending Chicago Center
Sun 12:45:11 PM 41.1644 -85.1706 317° Northwest 362 417 25,200 -1,951 Descending Chicago Center
Sun 12:46:13 PM 41.2347 -85.2581 317° Northwest 352 405 23,200 -1,984 Descending Chicago Center
Sun 12:47:15 PM 41.2844 -85.3525 305° West 316 364 21,100 -1,984 Descending Chicago Center
Sun 12:48:17 PM 41.3228 -85.4611 295° West 320 368 19,100 -1,854 Descending Chicago Center
Sun 12:49:18 PM 41.3606 -85.5689 295° West 318 366 17,300 -1,220 Descending Chicago Center
Sun 12:50:20 PM 41.3828 -85.6808 285° West 312 359 16,600 -774 Descending Chicago Center
Sun 12:51:22 PM 41.4053 -85.7911 285° West 308 354 15,700 -871 Descending Chicago Center
Sun 12:52:24 PM 41.4269 -85.9019 285° West 309 356 14,800 -927 Descending Chicago Center
Sun 12:53:25 PM 41.4531 -86.0358 285° West 311 358 13,800 -927 Descending Chicago Center
Sun 12:54:27 PM 41.4756 -86.1492 285° West 313 360 12,900 -871 Descending Chicago Center
Sun 12:55:29 PM 41.4981 -86.2631 285° West 317 365 12,000 -871 Descending Chicago Center
Sun 12:56:31 PM 41.5197 -86.3753 284° West 313 360 11,100 -871 Descending Chicago Center
Sun 12:57:33 PM 41.5219 -86.4908 272° West 311 358 10,200 -537 Descending Chicago Center
Sun 12:58:34 PM 41.5222 -86.6064 270° West 312 359 10,000 -97 Descending Chicago Center
Sun 12:59:37 PM 41.5192 -86.7417 268° West 313 360 10,000  Level Chicago Center
Sun 01:00:39 PM 41.5211 -86.8583 271° West 315 362 10,000 -532 Level Chicago Center
Sun 01:01:41 PM 41.5192 -86.9503 268° West 258 297 8,900 -1,161 Descending Chicago Center
Sun 01:02:43 PM 41.5189 -87.0444 270° West 252 290 7,600 -1,317 Descending Chicago Center
Sun 01:03:44 PM 41.5267 -87.1361 276° West 251 289 6,200 -878 Descending Chicago Center
Sun 01:04:46 PM 41.5500 -87.2333 288° West 248 285 5,800 -491 Descending Chicago TRACON
Sun 01:05:34 PM 41.5667 -87.3167 285° West 246 283 5,300 -417 Descending Chicago TRACON
Sun 01:06:41 PM 41.6000 -87.4000 298° West 247 284 5,000 -135 Descending Chicago TRACON
Sun 01:07:47 PM 41.6167 -87.5000 283° West 246 283 5,000 -286 Level Chicago TRACON
Sun 01:08:47 PM 41.6500 -87.5667 304° West 231 266 4,400 -938 Descending Chicago TRACON
Sun 01:09:55 PM 41.7019 -87.6358 315° West 220 253 3,000 -1,095 Descending Chicago Center
Sun 01:10:53 PM 41.7333 -87.6833 312° West 169 194 2,100 -857 Descending Chicago TRACON
Sun 01:11:47 PM 41.7500 -87.7167 304° West 114 131 1,400 -778 Descending Chicago TRACON

Login

Don't have an account? Register now (free) for customized features, flight alerts, and more!